Altus, OK

4:13 AM CDT on March 31, 2015 (GMT -0500)
Airplane Park | | Change Station
CLOSE
Current Station
Personal Weather Station
Location: Altus, OK
Elevation: 1391 ft
Nearby Weather Stations

Elev 1391 ft 34.64 °N, 99.32 °W | Updated 4 seconds ago

Partly Cloudy
Partly Cloudy
57.7 °F
Feels Like 57.7 °F
N
2.7
Wind Variable Wind from East
Gusts 4.9 mph

Today
High -- | Low -- °F
--% Chance of Precip.
Yesterday
High -- | Low -- °F
Precip. -- in
7:25 AM 7:57 PM
Waxing Gibbous, 85% visible
Pressure 29.95 in
Visibility 4.0 miles
Clouds Clear
Dew Point 56 °F
Humidity 95%
Rainfall 0.00 in
Snow Depth Not available.
UV 0.0 out of 12
Pollen 11.80 out of 12
Air Quality Not available.
Flu Activity Not available.
SPECI KLTS 310903Z AUTO 05001KT 4SM R17R/5000FT BR CLR 12/12 A2995 RMK AO2

More Conditions Fewer Conditions

Pressure 29.95 in
Visibility 4.0 miles
Clouds Clear
Dew Point 56 °F
Humidity 95%
Rainfall 0.00 in
Snow Depth Not available.
UV 0.0 out of 12
Pollen 11.80 out of 12
Air Quality Not available.
Flu Activity Not available.
SPECI KLTS 310903Z AUTO 05001KT 4SM R17R/5000FT BR CLR 12/12 A2995 RMK AO2

More Conditions Fewer Conditions

10-Day Weather Forecast

Almanac

Astronomy

Mar. 31, 2015 Rise Set
Actual Time
Civil Twilight
Nautical Twilight
Astronomical Twilight
Moon
Length of Visible Light
Length of Day
Tomorrow will be .
, % of the Moon is Illuminated

Today's Extremes

State Highs State Lows

Community

WunderPhotos

Upload Photos

1,809,733 photos uploaded!

WunderBlogs® & News

Nearby

Air Quality

  Air Quality AQ Index Pollutant
Not available.

Snow Depth

Station Depth Elevation

Earthquake Activity

City Distance Mag. Time & Date
Minimum magnitude displayed is 2.5.

Coastal Water Temperatures

Place Temperature

Stations

Nearby Weather Stations

Station Location Temp. Windchill Dew Point Humidity Wind Precip. Elev Updated Type